sensor_id;sensor_type;location;lat;lon;timestamp;P1;durP1;ratioP1;P2;durP2;ratioP2
40675;SDS011;26359;48.750;9.314;2022-12-15T00:02:27;49.00;;;30.85;;
40675;SDS011;26359;48.750;9.314;2022-12-15T00:05:11;50.22;;;31.35;;
40675;SDS011;26359;48.750;9.314;2022-12-15T00:07:55;50.65;;;32.00;;
40675;SDS011;26359;48.750;9.314;2022-12-15T00:10:39;52.72;;;32.35;;
40675;SDS011;26359;48.750;9.314;2022-12-15T00:13:23;49.35;;;30.13;;
40675;SDS011;26359;48.750;9.314;2022-12-15T00:16:07;45.35;;;30.00;;
40675;SDS011;26359;48.750;9.314;2022-12-15T00:18:53;50.30;;;30.73;;
40675;SDS011;26359;48.750;9.314;2022-12-15T00:21:38;50.15;;;31.48;;
40675;SDS011;26359;48.750;9.314;2022-12-15T00:24:23;51.67;;;32.33;;
40675;SDS011;26359;48.750;9.314;2022-12-15T00:27:07;49.70;;;31.83;;
40675;SDS011;26359;48.750;9.314;2022-12-15T00:29:51;48.97;;;31.40;;
40675;SDS011;26359;48.750;9.314;2022-12-15T00:32:36;51.28;;;32.63;;
40675;SDS011;26359;48.750;9.314;2022-12-15T00:35:21;50.97;;;32.55;;
40675;SDS011;26359;48.750;9.314;2022-12-15T00:38:09;50.58;;;33.05;;
40675;SDS011;26359;48.750;9.314;2022-12-15T00:40:55;53.30;;;32.78;;
40675;SDS011;26359;48.750;9.314;2022-12-15T00:43:29;51.20;;;31.80;;
40675;SDS011;26359;48.750;9.314;2022-12-15T00:45:56;51.05;;;31.77;;
40675;SDS011;26359;48.750;9.314;2022-12-15T00:48:40;49.55;;;31.42;;
40675;SDS011;26359;48.750;9.314;2022-12-15T00:51:07;47.15;;;30.08;;
40675;SDS011;26359;48.750;9.314;2022-12-15T00:53:33;52.65;;;30.95;;
40675;SDS011;26359;48.750;9.314;2022-12-15T00:56:17;51.67;;;31.80;;
40675;SDS011;26359;48.750;9.314;2022-12-15T00:59:01;51.50;;;32.28;;
40675;SDS011;26359;48.750;9.314;2022-12-15T01:01:45;54.30;;;31.60;;
40675;SDS011;26359;48.750;9.314;2022-12-15T01:04:29;51.15;;;31.00;;
40675;SDS011;26359;48.750;9.314;2022-12-15T01:07:13;49.72;;;30.65;;
40675;SDS011;26359;48.750;9.314;2022-12-15T01:09:58;52.17;;;31.92;;
40675;SDS011;26359;48.750;9.314;2022-12-15T01:12:42;49.42;;;29.92;;
40675;SDS011;26359;48.750;9.314;2022-12-15T01:15:27;46.83;;;29.30;;
40675;SDS011;26359;48.750;9.314;2022-12-15T01:18:11;45.03;;;28.48;;
40675;SDS011;26359;48.750;9.314;2022-12-15T01:20:56;51.03;;;31.52;;
40675;SDS011;26359;48.750;9.314;2022-12-15T01:23:23;51.70;;;32.03;;
40675;SDS011;26359;48.750;9.314;2022-12-15T01:25:50;51.80;;;31.58;;
40675;SDS011;26359;48.750;9.314;2022-12-15T01:28:17;50.13;;;29.95;;
40675;SDS011;26359;48.750;9.314;2022-12-15T01:30:46;49.47;;;30.85;;
40675;SDS011;26359;48.750;9.314;2022-12-15T01:33:12;53.25;;;31.85;;
40675;SDS011;26359;48.750;9.314;2022-12-15T01:35:39;47.88;;;31.05;;
40675;SDS011;26359;48.750;9.314;2022-12-15T01:38:05;50.35;;;31.05;;
40675;SDS011;26359;48.750;9.314;2022-12-15T01:40:31;50.08;;;31.65;;
40675;SDS011;26359;48.750;9.314;2022-12-15T01:43:15;50.78;;;32.15;;
40675;SDS011;26359;48.750;9.314;2022-12-15T01:45:50;49.85;;;31.10;;
40675;SDS011;26359;48.750;9.314;2022-12-15T01:48:28;52.10;;;30.98;;
40675;SDS011;26359;48.750;9.314;2022-12-15T01:53:35;49.33;;;30.52;;
40675;SDS011;26359;48.750;9.314;2022-12-15T01:56:04;51.67;;;31.63;;
40675;SDS011;26359;48.750;9.314;2022-12-15T01:58:33;49.42;;;31.33;;
40675;SDS011;26359;48.750;9.314;2022-12-15T02:01:00;50.40;;;30.75;;
40675;SDS011;26359;48.750;9.314;2022-12-15T02:03:26;53.67;;;31.92;;
40675;SDS011;26359;48.750;9.314;2022-12-15T02:05:52;54.10;;;31.80;;
40675;SDS011;26359;48.750;9.314;2022-12-15T02:08:19;54.10;;;31.85;;
40675;SDS011;26359;48.750;9.314;2022-12-15T02:13:56;58.03;;;34.42;;
40675;SDS011;26359;48.750;9.314;2022-12-15T02:21:44;56.08;;;34.28;;
40675;SDS011;26359;48.750;9.314;2022-12-15T02:24:32;57.65;;;35.10;;
40675;SDS011;26359;48.750;9.314;2022-12-15T02:32:47;59.58;;;36.10;;
40675;SDS011;26359;48.750;9.314;2022-12-15T02:35:16;63.28;;;35.47;;
40675;SDS011;26359;48.750;9.314;2022-12-15T02:37:50;63.50;;;35.85;;
40675;SDS011;26359;48.750;9.314;2022-12-15T02:40:15;65.47;;;35.20;;
40675;SDS011;26359;48.750;9.314;2022-12-15T02:42:42;61.20;;;35.35;;
40675;SDS011;26359;48.750;9.314;2022-12-15T02:45:12;63.03;;;37.67;;
40675;SDS011;26359;48.750;9.314;2022-12-15T02:48:16;63.38;;;36.45;;
40675;SDS011;26359;48.750;9.314;2022-12-15T02:56:59;64.55;;;36.25;;
40675;SDS011;26359;48.750;9.314;2022-12-15T02:59:50;63.50;;;35.55;;
40675;SDS011;26359;48.750;9.314;2022-12-15T03:02:19;63.55;;;37.30;;
40675;SDS011;26359;48.750;9.314;2022-12-15T03:04:48;63.55;;;34.88;;
40675;SDS011;26359;48.750;9.314;2022-12-15T03:07:14;60.85;;;36.28;;
40675;SDS011;26359;48.750;9.314;2022-12-15T03:09:39;59.78;;;35.17;;
40675;SDS011;26359;48.750;9.314;2022-12-15T03:12:06;59.72;;;36.20;;
40675;SDS011;26359;48.750;9.314;2022-12-15T03:14:32;63.92;;;36.60;;
40675;SDS011;26359;48.750;9.314;2022-12-15T03:16:58;58.67;;;34.25;;
40675;SDS011;26359;48.750;9.314;2022-12-15T03:19:23;62.03;;;34.67;;
40675;SDS011;26359;48.750;9.314;2022-12-15T03:21:50;63.35;;;36.33;;
40675;SDS011;26359;48.750;9.314;2022-12-15T03:24:16;59.47;;;36.17;;
40675;SDS011;26359;48.750;9.314;2022-12-15T03:26:41;63.65;;;36.42;;
40675;SDS011;26359;48.750;9.314;2022-12-15T03:29:07;60.25;;;34.85;;
40675;SDS011;26359;48.750;9.314;2022-12-15T03:31:33;59.78;;;33.78;;
40675;SDS011;26359;48.750;9.314;2022-12-15T03:33:59;57.35;;;32.75;;
40675;SDS011;26359;48.750;9.314;2022-12-15T03:36:24;60.35;;;34.40;;
40675;SDS011;26359;48.750;9.314;2022-12-15T03:38:50;61.35;;;34.25;;
40675;SDS011;26359;48.750;9.314;2022-12-15T03:41:15;61.35;;;35.10;;
40675;SDS011;26359;48.750;9.314;2022-12-15T03:43:43;56.60;;;34.20;;
40675;SDS011;26359;48.750;9.314;2022-12-15T03:46:10;57.90;;;34.83;;
40675;SDS011;26359;48.750;9.314;2022-12-15T03:48:36;58.63;;;35.03;;
40675;SDS011;26359;48.750;9.314;2022-12-15T03:51:01;59.25;;;36.05;;
40675;SDS011;26359;48.750;9.314;2022-12-15T03:53:27;58.83;;;34.25;;
40675;SDS011;26359;48.750;9.314;2022-12-15T03:55:52;60.20;;;35.50;;
40675;SDS011;26359;48.750;9.314;2022-12-15T03:58:18;59.38;;;37.53;;
40675;SDS011;26359;48.750;9.314;2022-12-15T04:00:43;61.72;;;36.97;;
40675;SDS011;26359;48.750;9.314;2022-12-15T04:03:09;60.50;;;38.20;;
40675;SDS011;26359;48.750;9.314;2022-12-15T04:05:35;62.88;;;37.85;;
40675;SDS011;26359;48.750;9.314;2022-12-15T04:08:01;67.00;;;38.63;;
40675;SDS011;26359;48.750;9.314;2022-12-15T04:10:29;64.13;;;35.95;;
40675;SDS011;26359;48.750;9.314;2022-12-15T04:12:59;64.40;;;37.08;;
40675;SDS011;26359;48.750;9.314;2022-12-15T04:15:30;59.33;;;35.28;;
40675;SDS011;26359;48.750;9.314;2022-12-15T04:17:55;60.88;;;35.53;;
40675;SDS011;26359;48.750;9.314;2022-12-15T04:20:22;61.80;;;34.15;;
40675;SDS011;26359;48.750;9.314;2022-12-15T04:22:49;60.80;;;34.53;;
40675;SDS011;26359;48.750;9.314;2022-12-15T04:25:22;62.55;;;36.03;;
40675;SDS011;26359;48.750;9.314;2022-12-15T04:28:08;61.90;;;36.53;;
40675;SDS011;26359;48.750;9.314;2022-12-15T04:30:53;61.37;;;36.83;;
40675;SDS011;26359;48.750;9.314;2022-12-15T04:33:41;63.40;;;36.97;;
40675;SDS011;26359;48.750;9.314;2022-12-15T04:36:28;62.88;;;35.78;;
40675;SDS011;26359;48.750;9.314;2022-12-15T04:39:13;58.13;;;32.53;;
40675;SDS011;26359;48.750;9.314;2022-12-15T04:41:58;61.17;;;34.28;;
40675;SDS011;26359;48.750;9.314;2022-12-15T04:44:45;56.38;;;33.35;;
40675;SDS011;26359;48.750;9.314;2022-12-15T04:47:31;58.45;;;33.50;;
40675;SDS011;26359;48.750;9.314;2022-12-15T04:50:15;57.40;;;34.05;;
40675;SDS011;26359;48.750;9.314;2022-12-15T04:53:06;59.13;;;33.97;;
40675;SDS011;26359;48.750;9.314;2022-12-15T04:55:55;58.78;;;33.70;;
40675;SDS011;26359;48.750;9.314;2022-12-15T04:58:39;58.88;;;33.83;;
40675;SDS011;26359;48.750;9.314;2022-12-15T05:01:23;57.88;;;34.15;;
40675;SDS011;26359;48.750;9.314;2022-12-15T05:04:08;57.47;;;33.85;;
40675;SDS011;26359;48.750;9.314;2022-12-15T05:06:52;55.83;;;32.72;;
40675;SDS011;26359;48.750;9.314;2022-12-15T05:09:36;54.17;;;31.85;;
40675;SDS011;26359;48.750;9.314;2022-12-15T05:12:20;54.47;;;31.50;;
40675;SDS011;26359;48.750;9.314;2022-12-15T05:15:04;57.42;;;34.17;;
40675;SDS011;26359;48.750;9.314;2022-12-15T05:17:48;61.15;;;35.15;;
40675;SDS011;26359;48.750;9.314;2022-12-15T05:20:33;55.08;;;34.33;;
40675;SDS011;26359;48.750;9.314;2022-12-15T05:23:17;54.55;;;34.95;;
40675;SDS011;26359;48.750;9.314;2022-12-15T05:26:01;57.65;;;36.20;;
40675;SDS011;26359;48.750;9.314;2022-12-15T05:28:45;54.60;;;37.15;;
40675;SDS011;26359;48.750;9.314;2022-12-15T05:31:29;56.58;;;35.58;;
40675;SDS011;26359;48.750;9.314;2022-12-15T05:34:14;61.47;;;38.88;;
40675;SDS011;26359;48.750;9.314;2022-12-15T05:36:40;56.03;;;35.17;;
40675;SDS011;26359;48.750;9.314;2022-12-15T05:39:05;54.97;;;34.63;;
40675;SDS011;26359;48.750;9.314;2022-12-15T05:41:31;61.30;;;40.67;;
40675;SDS011;26359;48.750;9.314;2022-12-15T05:43:57;56.17;;;38.38;;
40675;SDS011;26359;48.750;9.314;2022-12-15T05:46:22;57.40;;;36.03;;
40675;SDS011;26359;48.750;9.314;2022-12-15T05:48:48;58.88;;;37.50;;
40675;SDS011;26359;48.750;9.314;2022-12-15T05:51:13;61.05;;;35.58;;
40675;SDS011;26359;48.750;9.314;2022-12-15T05:53:39;59.75;;;32.78;;
40675;SDS011;26359;48.750;9.314;2022-12-15T05:56:07;55.47;;;32.80;;
40675;SDS011;26359;48.750;9.314;2022-12-15T05:58:37;61.90;;;34.70;;
40675;SDS011;26359;48.750;9.314;2022-12-15T06:01:11;56.08;;;32.90;;
40675;SDS011;26359;48.750;9.314;2022-12-15T06:03:38;54.13;;;31.83;;
40675;SDS011;26359;48.750;9.314;2022-12-15T06:06:05;58.30;;;33.03;;
40675;SDS011;26359;48.750;9.314;2022-12-15T06:08:32;58.92;;;34.10;;
40675;SDS011;26359;48.750;9.314;2022-12-15T06:10:59;60.63;;;34.28;;
40675;SDS011;26359;48.750;9.314;2022-12-15T06:13:27;57.83;;;34.08;;
40675;SDS011;26359;48.750;9.314;2022-12-15T06:18:27;57.45;;;34.58;;
40675;SDS011;26359;48.750;9.314;2022-12-15T06:20:57;62.75;;;35.40;;
40675;SDS011;26359;48.750;9.314;2022-12-15T06:23:24;60.00;;;34.72;;
40675;SDS011;26359;48.750;9.314;2022-12-15T06:25:51;63.00;;;37.53;;
40675;SDS011;26359;48.750;9.314;2022-12-15T06:28:17;60.05;;;34.13;;
40675;SDS011;26359;48.750;9.314;2022-12-15T06:30:47;58.40;;;35.20;;
40675;SDS011;26359;48.750;9.314;2022-12-15T06:33:17;63.47;;;34.22;;
40675;SDS011;26359;48.750;9.314;2022-12-15T06:35:43;61.72;;;36.03;;
40675;SDS011;26359;48.750;9.314;2022-12-15T06:38:09;61.38;;;34.55;;
40675;SDS011;26359;48.750;9.314;2022-12-15T06:40:34;55.85;;;33.30;;
40675;SDS011;26359;48.750;9.314;2022-12-15T06:43:00;59.22;;;34.50;;
40675;SDS011;26359;48.750;9.314;2022-12-15T06:45:25;56.55;;;33.75;;
40675;SDS011;26359;48.750;9.314;2022-12-15T06:47:51;57.88;;;33.38;;
40675;SDS011;26359;48.750;9.314;2022-12-15T06:50:16;53.33;;;32.53;;
40675;SDS011;26359;48.750;9.314;2022-12-15T06:52:42;57.08;;;32.47;;
40675;SDS011;26359;48.750;9.314;2022-12-15T06:55:08;54.67;;;31.50;;
40675;SDS011;26359;48.750;9.314;2022-12-15T06:57:33;58.60;;;33.78;;
40675;SDS011;26359;48.750;9.314;2022-12-15T07:00:00;56.92;;;32.72;;
40675;SDS011;26359;48.750;9.314;2022-12-15T07:02:26;53.53;;;32.15;;
40675;SDS011;26359;48.750;9.314;2022-12-15T07:04:53;54.70;;;32.38;;
40675;SDS011;26359;48.750;9.314;2022-12-15T07:07:19;55.95;;;31.42;;
40675;SDS011;26359;48.750;9.314;2022-12-15T07:09:45;58.13;;;32.15;;
40675;SDS011;26359;48.750;9.314;2022-12-15T07:12:10;56.45;;;32.42;;
40675;SDS011;26359;48.750;9.314;2022-12-15T07:14:36;51.70;;;30.45;;
40675;SDS011;26359;48.750;9.314;2022-12-15T07:17:02;54.45;;;31.67;;
40675;SDS011;26359;48.750;9.314;2022-12-15T07:19:27;50.65;;;28.73;;
40675;SDS011;26359;48.750;9.314;2022-12-15T07:21:53;49.42;;;29.27;;
40675;SDS011;26359;48.750;9.314;2022-12-15T07:24:21;52.20;;;30.95;;
40675;SDS011;26359;48.750;9.314;2022-12-15T07:26:47;49.65;;;29.42;;
40675;SDS011;26359;48.750;9.314;2022-12-15T07:29:13;51.03;;;30.02;;
40675;SDS011;26359;48.750;9.314;2022-12-15T07:31:38;54.83;;;30.75;;
40675;SDS011;26359;48.750;9.314;2022-12-15T07:34:04;53.67;;;31.45;;
40675;SDS011;26359;48.750;9.314;2022-12-15T07:36:29;50.65;;;31.38;;
40675;SDS011;26359;48.750;9.314;2022-12-15T07:38:58;54.90;;;32.45;;
40675;SDS011;26359;48.750;9.314;2022-12-15T07:41:28;54.45;;;31.70;;
40675;SDS011;26359;48.750;9.314;2022-12-15T07:43:54;52.47;;;31.15;;
40675;SDS011;26359;48.750;9.314;2022-12-15T07:46:20;54.58;;;30.88;;
40675;SDS011;26359;48.750;9.314;2022-12-15T07:48:48;58.30;;;32.75;;
40675;SDS011;26359;48.750;9.314;2022-12-15T07:51:14;53.20;;;33.08;;
40675;SDS011;26359;48.750;9.314;2022-12-15T07:53:39;54.00;;;33.08;;
40675;SDS011;26359;48.750;9.314;2022-12-15T07:56:05;57.08;;;32.15;;
40675;SDS011;26359;48.750;9.314;2022-12-15T07:58:31;59.47;;;33.33;;
40675;SDS011;26359;48.750;9.314;2022-12-15T08:00:58;56.60;;;33.03;;
40675;SDS011;26359;48.750;9.314;2022-12-15T08:03:25;57.83;;;33.83;;
40675;SDS011;26359;48.750;9.314;2022-12-15T08:05:51;56.70;;;32.80;;
40675;SDS011;26359;48.750;9.314;2022-12-15T08:08:18;55.72;;;31.80;;
40675;SDS011;26359;48.750;9.314;2022-12-15T08:10:43;55.25;;;32.40;;
40675;SDS011;26359;48.750;9.314;2022-12-15T08:13:09;56.78;;;31.95;;
40675;SDS011;26359;48.750;9.314;2022-12-15T08:15:35;54.90;;;32.53;;
40675;SDS011;26359;48.750;9.314;2022-12-15T08:18:02;56.58;;;32.20;;
40675;SDS011;26359;48.750;9.314;2022-12-15T08:20:28;57.70;;;32.85;;
40675;SDS011;26359;48.750;9.314;2022-12-15T08:22:55;60.00;;;33.97;;
40675;SDS011;26359;48.750;9.314;2022-12-15T08:25:20;55.80;;;32.85;;
40675;SDS011;26359;48.750;9.314;2022-12-15T08:27:48;58.25;;;31.85;;
40675;SDS011;26359;48.750;9.314;2022-12-15T08:30:14;59.58;;;33.10;;
40675;SDS011;26359;48.750;9.314;2022-12-15T08:32:40;55.15;;;31.65;;
40675;SDS011;26359;48.750;9.314;2022-12-15T08:35:06;54.47;;;32.00;;
40675;SDS011;26359;48.750;9.314;2022-12-15T08:37:32;56.88;;;31.60;;
40675;SDS011;26359;48.750;9.314;2022-12-15T08:39:58;58.88;;;32.85;;
40675;SDS011;26359;48.750;9.314;2022-12-15T08:42:23;53.00;;;32.13;;
40675;SDS011;26359;48.750;9.314;2022-12-15T08:44:49;51.30;;;31.40;;
40675;SDS011;26359;48.750;9.314;2022-12-15T08:47:15;60.38;;;33.63;;
40675;SDS011;26359;48.750;9.314;2022-12-15T08:49:41;60.00;;;34.28;;
40675;SDS011;26359;48.750;9.314;2022-12-15T08:52:06;59.97;;;33.90;;
40675;SDS011;26359;48.750;9.314;2022-12-15T08:54:32;52.80;;;32.63;;
40675;SDS011;26359;48.750;9.314;2022-12-15T08:56:58;53.85;;;32.75;;
40675;SDS011;26359;48.750;9.314;2022-12-15T08:59:23;52.58;;;32.05;;
40675;SDS011;26359;48.750;9.314;2022-12-15T09:01:49;54.25;;;32.17;;
40675;SDS011;26359;48.750;9.314;2022-12-15T09:04:15;52.88;;;32.17;;
40675;SDS011;26359;48.750;9.314;2022-12-15T09:06:41;53.92;;;31.98;;
40675;SDS011;26359;48.750;9.314;2022-12-15T09:09:07;54.70;;;31.80;;
40675;SDS011;26359;48.750;9.314;2022-12-15T09:11:35;52.58;;;32.25;;
40675;SDS011;26359;48.750;9.314;2022-12-15T09:14:01;50.30;;;30.27;;
40675;SDS011;26359;48.750;9.314;2022-12-15T09:16:27;53.00;;;31.33;;
40675;SDS011;26359;48.750;9.314;2022-12-15T09:18:54;55.55;;;32.90;;
40675;SDS011;26359;48.750;9.314;2022-12-15T09:21:22;51.50;;;31.50;;
40675;SDS011;26359;48.750;9.314;2022-12-15T09:23:50;53.03;;;31.85;;
40675;SDS011;26359;48.750;9.314;2022-12-15T09:26:18;56.53;;;32.60;;
40675;SDS011;26359;48.750;9.314;2022-12-15T09:28:45;52.20;;;30.60;;
40675;SDS011;26359;48.750;9.314;2022-12-15T09:31:15;55.10;;;31.42;;
40675;SDS011;26359;48.750;9.314;2022-12-15T09:33:45;56.93;;;31.73;;
40675;SDS011;26359;48.750;9.314;2022-12-15T09:36:12;57.50;;;31.40;;
40675;SDS011;26359;48.750;9.314;2022-12-15T09:38:38;54.05;;;31.25;;
40675;SDS011;26359;48.750;9.314;2022-12-15T09:52:13;50.70;;;32.00;;
40675;SDS011;26359;48.750;9.314;2022-12-15T09:54:43;52.33;;;30.27;;
40675;SDS011;26359;48.750;9.314;2022-12-15T10:00:18;54.90;;;31.80;;
40675;SDS011;26359;48.750;9.314;2022-12-15T10:07:43;52.53;;;31.90;;
40675;SDS011;26359;48.750;9.314;2022-12-15T10:10:14;51.40;;;30.63;;
40675;SDS011;26359;48.750;9.314;2022-12-15T10:12:47;51.67;;;30.52;;
40675;SDS011;26359;48.750;9.314;2022-12-15T10:17:47;48.28;;;29.48;;
40675;SDS011;26359;48.750;9.314;2022-12-15T10:20:27;51.90;;;32.25;;
40675;SDS011;26359;48.750;9.314;2022-12-15T10:22:55;51.65;;;30.95;;
40675;SDS011;26359;48.750;9.314;2022-12-15T10:25:25;53.92;;;31.42;;
40675;SDS011;26359;48.750;9.314;2022-12-15T10:33:22;48.65;;;28.80;;
40675;SDS011;26359;48.750;9.314;2022-12-15T10:35:59;55.88;;;31.90;;
40675;SDS011;26359;48.750;9.314;2022-12-15T10:38:35;55.30;;;33.67;;
40675;SDS011;26359;48.750;9.314;2022-12-15T10:41:06;56.20;;;32.75;;
40675;SDS011;26359;48.750;9.314;2022-12-15T10:43:40;55.63;;;32.58;;
40675;SDS011;26359;48.750;9.314;2022-12-15T10:46:14;54.13;;;33.28;;
40675;SDS011;26359;48.750;9.314;2022-12-15T10:48:55;55.85;;;32.33;;
40675;SDS011;26359;48.750;9.314;2022-12-15T10:51:29;57.22;;;33.97;;
40675;SDS011;26359;48.750;9.314;2022-12-15T10:56:56;58.05;;;33.78;;
40675;SDS011;26359;48.750;9.314;2022-12-15T11:05:02;51.20;;;30.48;;
40675;SDS011;26359;48.750;9.314;2022-12-15T11:07:38;57.47;;;32.75;;
40675;SDS011;26359;48.750;9.314;2022-12-15T11:10:25;57.35;;;31.45;;
40675;SDS011;26359;48.750;9.314;2022-12-15T11:13:21;55.83;;;31.40;;
40675;SDS011;26359;48.750;9.314;2022-12-15T11:15:47;56.10;;;32.88;;
40675;SDS011;26359;48.750;9.314;2022-12-15T11:18:35;58.75;;;33.60;;
40675;SDS011;26359;48.750;9.314;2022-12-15T11:21:11;55.25;;;31.83;;
40675;SDS011;26359;48.750;9.314;2022-12-15T11:23:57;54.75;;;31.65;;
40675;SDS011;26359;48.750;9.314;2022-12-15T11:31:47;52.25;;;29.77;;
40675;SDS011;26359;48.750;9.314;2022-12-15T11:34:31;50.35;;;30.38;;
40675;SDS011;26359;48.750;9.314;2022-12-15T11:42:32;51.33;;;30.20;;
40675;SDS011;26359;48.750;9.314;2022-12-15T11:47:36;46.22;;;28.67;;
40675;SDS011;26359;48.750;9.314;2022-12-15T11:55:40;45.83;;;26.88;;
40675;SDS011;26359;48.750;9.314;2022-12-15T12:00:54;48.95;;;28.70;;
40675;SDS011;26359;48.750;9.314;2022-12-15T12:03:30;52.13;;;31.45;;
40675;SDS011;26359;48.750;9.314;2022-12-15T12:06:09;47.03;;;28.63;;
40675;SDS011;26359;48.750;9.314;2022-12-15T12:08:45;47.03;;;28.67;;
40675;SDS011;26359;48.750;9.314;2022-12-15T12:16:57;51.95;;;31.55;;
40675;SDS011;26359;48.750;9.314;2022-12-15T12:19:40;54.30;;;30.42;;
40675;SDS011;26359;48.750;9.314;2022-12-15T12:22:24;51.47;;;30.63;;
40675;SDS011;26359;48.750;9.314;2022-12-15T12:24:58;51.63;;;31.63;;
40675;SDS011;26359;48.750;9.314;2022-12-15T12:27:30;51.67;;;30.92;;
40675;SDS011;26359;48.750;9.314;2022-12-15T12:30:14;49.23;;;30.67;;
40675;SDS011;26359;48.750;9.314;2022-12-15T12:37:58;45.30;;;28.92;;
40675;SDS011;26359;48.750;9.314;2022-12-15T12:40:44;45.13;;;27.70;;
40675;SDS011;26359;48.750;9.314;2022-12-15T12:48:49;43.15;;;27.10;;
40675;SDS011;26359;48.750;9.314;2022-12-15T12:51:35;44.00;;;26.38;;
40675;SDS011;26359;48.750;9.314;2022-12-15T12:56:59;45.38;;;26.25;;
40675;SDS011;26359;48.750;9.314;2022-12-15T12:59:50;44.30;;;26.02;;
40675;SDS011;26359;48.750;9.314;2022-12-15T13:04:59;44.97;;;27.58;;
40675;SDS011;26359;48.750;9.314;2022-12-15T13:10:16;43.65;;;25.55;;
40675;SDS011;26359;48.750;9.314;2022-12-15T13:17:55;42.08;;;25.50;;
40675;SDS011;26359;48.750;9.314;2022-12-15T13:20:43;42.03;;;24.65;;
40675;SDS011;26359;48.750;9.314;2022-12-15T13:23:32;45.17;;;25.45;;
40675;SDS011;26359;48.750;9.314;2022-12-15T13:26:04;43.63;;;25.90;;
40675;SDS011;26359;48.750;9.314;2022-12-15T13:39:04;41.95;;;25.75;;
40675;SDS011;26359;48.750;9.314;2022-12-15T13:44:19;47.50;;;28.40;;
40675;SDS011;26359;48.750;9.314;2022-12-15T13:46:49;46.03;;;27.90;;
40675;SDS011;26359;48.750;9.314;2022-12-15T13:52:38;46.67;;;26.55;;
40675;SDS011;26359;48.750;9.314;2022-12-15T13:55:15;48.05;;;26.65;;
40675;SDS011;26359;48.750;9.314;2022-12-15T13:57:47;49.17;;;26.85;;
40675;SDS011;26359;48.750;9.314;2022-12-15T14:00:36;45.97;;;26.95;;
40675;SDS011;26359;48.750;9.314;2022-12-15T14:03:04;45.58;;;26.90;;
40675;SDS011;26359;48.750;9.314;2022-12-15T14:05:31;47.13;;;27.23;;
40675;SDS011;26359;48.750;9.314;2022-12-15T14:07:58;47.53;;;27.77;;
40675;SDS011;26359;48.750;9.314;2022-12-15T14:10:33;48.63;;;28.20;;
40675;SDS011;26359;48.750;9.314;2022-12-15T14:15:41;44.72;;;25.88;;
40675;SDS011;26359;48.750;9.314;2022-12-15T14:18:20;45.35;;;27.60;;
40675;SDS011;26359;48.750;9.314;2022-12-15T14:20:46;46.80;;;27.85;;
40675;SDS011;26359;48.750;9.314;2022-12-15T14:23:19;45.75;;;25.55;;
40675;SDS011;26359;48.750;9.314;2022-12-15T14:25:56;43.65;;;26.55;;
40675;SDS011;26359;48.750;9.314;2022-12-15T14:28:31;43.65;;;25.48;;
40675;SDS011;26359;48.750;9.314;2022-12-15T14:30:59;48.28;;;27.77;;
40675;SDS011;26359;48.750;9.314;2022-12-15T14:33:32;49.88;;;27.60;;
40675;SDS011;26359;48.750;9.314;2022-12-15T14:36:01;47.10;;;26.98;;
40675;SDS011;26359;48.750;9.314;2022-12-15T14:38:39;45.33;;;25.88;;
40675;SDS011;26359;48.750;9.314;2022-12-15T14:41:29;43.85;;;25.27;;
40675;SDS011;26359;48.750;9.314;2022-12-15T14:44:01;45.85;;;25.70;;
40675;SDS011;26359;48.750;9.314;2022-12-15T14:46:30;43.65;;;25.73;;
40675;SDS011;26359;48.750;9.314;2022-12-15T14:51:27;47.38;;;27.00;;
40675;SDS011;26359;48.750;9.314;2022-12-15T14:53:54;44.03;;;25.42;;
40675;SDS011;26359;48.750;9.314;2022-12-15T14:58:46;50.67;;;28.48;;
40675;SDS011;26359;48.750;9.314;2022-12-15T15:01:22;51.25;;;27.42;;
40675;SDS011;26359;48.750;9.314;2022-12-15T15:03:55;48.28;;;26.63;;
40675;SDS011;26359;48.750;9.314;2022-12-15T15:06:21;48.67;;;27.25;;
40675;SDS011;26359;48.750;9.314;2022-12-15T15:09:03;46.72;;;26.48;;
40675;SDS011;26359;48.750;9.314;2022-12-15T15:11:39;49.35;;;27.75;;
40675;SDS011;26359;48.750;9.314;2022-12-15T15:14:07;47.38;;;26.98;;
40675;SDS011;26359;48.750;9.314;2022-12-15T15:16:36;48.90;;;27.50;;
40675;SDS011;26359;48.750;9.314;2022-12-15T15:19:02;49.97;;;26.70;;
40675;SDS011;26359;48.750;9.314;2022-12-15T15:21:33;52.67;;;30.60;;
40675;SDS011;26359;48.750;9.314;2022-12-15T15:26:34;48.10;;;29.10;;
40675;SDS011;26359;48.750;9.314;2022-12-15T15:29:00;47.10;;;28.55;;
40675;SDS011;26359;48.750;9.314;2022-12-15T15:31:33;51.28;;;30.27;;
40675;SDS011;26359;48.750;9.314;2022-12-15T15:34:00;48.10;;;29.98;;
40675;SDS011;26359;48.750;9.314;2022-12-15T15:36:36;49.20;;;28.83;;
40675;SDS011;26359;48.750;9.314;2022-12-15T15:39:08;44.95;;;25.77;;
40675;SDS011;26359;48.750;9.314;2022-12-15T15:41:39;43.00;;;24.95;;
40675;SDS011;26359;48.750;9.314;2022-12-15T15:44:08;48.65;;;26.92;;
40675;SDS011;26359;48.750;9.314;2022-12-15T15:46:38;47.88;;;26.73;;
40675;SDS011;26359;48.750;9.314;2022-12-15T15:49:11;45.85;;;26.08;;
40675;SDS011;26359;48.750;9.314;2022-12-15T15:51:40;47.00;;;25.92;;
40675;SDS011;26359;48.750;9.314;2022-12-15T15:54:09;43.80;;;24.50;;
40675;SDS011;26359;48.750;9.314;2022-12-15T15:56:37;45.15;;;25.48;;
40675;SDS011;26359;48.750;9.314;2022-12-15T15:59:10;45.33;;;25.85;;
40675;SDS011;26359;48.750;9.314;2022-12-15T16:01:37;45.03;;;26.45;;
40675;SDS011;26359;48.750;9.314;2022-12-15T16:04:03;45.38;;;26.33;;
40675;SDS011;26359;48.750;9.314;2022-12-15T16:06:30;43.25;;;24.58;;
40675;SDS011;26359;48.750;9.314;2022-12-15T16:08:56;45.85;;;25.50;;
40675;SDS011;26359;48.750;9.314;2022-12-15T16:11:22;44.00;;;24.55;;
40675;SDS011;26359;48.750;9.314;2022-12-15T16:13:51;43.92;;;25.17;;
40675;SDS011;26359;48.750;9.314;2022-12-15T16:16:18;46.22;;;25.63;;
40675;SDS011;26359;48.750;9.314;2022-12-15T16:18:45;42.90;;;24.27;;
40675;SDS011;26359;48.750;9.314;2022-12-15T16:21:11;43.78;;;26.58;;
40675;SDS011;26359;48.750;9.314;2022-12-15T16:23:38;43.20;;;24.73;;
40675;SDS011;26359;48.750;9.314;2022-12-15T16:26:07;43.05;;;25.63;;
40675;SDS011;26359;48.750;9.314;2022-12-15T16:28:38;45.22;;;24.20;;
40675;SDS011;26359;48.750;9.314;2022-12-15T16:31:04;45.20;;;26.50;;
40675;SDS011;26359;48.750;9.314;2022-12-15T16:33:33;44.65;;;25.45;;
40675;SDS011;26359;48.750;9.314;2022-12-15T16:36:00;45.85;;;25.67;;
40675;SDS011;26359;48.750;9.314;2022-12-15T16:38:29;44.60;;;25.95;;
40675;SDS011;26359;48.750;9.314;2022-12-15T16:40:56;40.28;;;25.08;;
40675;SDS011;26359;48.750;9.314;2022-12-15T16:43:28;40.17;;;24.17;;
40675;SDS011;26359;48.750;9.314;2022-12-15T16:45:53;38.83;;;23.77;;
40675;SDS011;26359;48.750;9.314;2022-12-15T16:48:22;37.85;;;23.83;;
40675;SDS011;26359;48.750;9.314;2022-12-15T16:50:49;37.03;;;24.00;;
40675;SDS011;26359;48.750;9.314;2022-12-15T16:53:26;40.70;;;24.02;;
40675;SDS011;26359;48.750;9.314;2022-12-15T16:55:56;40.47;;;24.25;;
40675;SDS011;26359;48.750;9.314;2022-12-15T16:58:23;37.80;;;23.80;;
40675;SDS011;26359;48.750;9.314;2022-12-15T17:00:50;36.90;;;24.02;;
40675;SDS011;26359;48.750;9.314;2022-12-15T17:03:18;36.63;;;23.10;;
40675;SDS011;26359;48.750;9.314;2022-12-15T17:05:51;39.22;;;23.08;;
40675;SDS011;26359;48.750;9.314;2022-12-15T17:08:36;38.67;;;24.25;;